sensor_id;sensor_type;location;lat;lon;timestamp;P1;durP1;ratioP1;P2;durP2;ratioP2
4961;SDS011;2496;52.468;13.342;2023-04-01T00:01:47;6.40;;;2.53;;
4961;SDS011;2496;52.468;13.342;2023-04-01T00:04:14;6.37;;;2.70;;
4961;SDS011;2496;52.468;13.342;2023-04-01T00:06:41;1.70;;;1.60;;
4961;SDS011;2496;52.468;13.342;2023-04-01T00:09:08;4.03;;;2.07;;
4961;SDS011;2496;52.468;13.342;2023-04-01T00:11:35;2.57;;;1.90;;
4961;SDS011;2496;52.468;13.342;2023-04-01T00:14:03;3.30;;;2.13;;
4961;SDS011;2496;52.468;13.342;2023-04-01T00:16:30;4.13;;;2.53;;
4961;SDS011;2496;52.468;13.342;2023-04-01T00:18:58;3.03;;;2.00;;
4961;SDS011;2496;52.468;13.342;2023-04-01T00:21:25;3.47;;;2.00;;
4961;SDS011;2496;52.468;13.342;2023-04-01T00:23:52;5.13;;;2.17;;
4961;SDS011;2496;52.468;13.342;2023-04-01T00:26:19;5.57;;;2.33;;
4961;SDS011;2496;52.468;13.342;2023-04-01T00:28:47;3.23;;;1.80;;
4961;SDS011;2496;52.468;13.342;2023-04-01T00:31:16;5.70;;;2.10;;
4961;SDS011;2496;52.468;13.342;2023-04-01T00:33:43;3.97;;;1.97;;
4961;SDS011;2496;52.468;13.342;2023-04-01T00:36:11;5.00;;;2.57;;
4961;SDS011;2496;52.468;13.342;2023-04-01T00:38:39;2.73;;;2.00;;
4961;SDS011;2496;52.468;13.342;2023-04-01T00:41:06;2.40;;;1.97;;
4961;SDS011;2496;52.468;13.342;2023-04-01T00:43:34;6.10;;;2.47;;
4961;SDS011;2496;52.468;13.342;2023-04-01T00:46:01;2.43;;;2.07;;
4961;SDS011;2496;52.468;13.342;2023-04-01T00:48:29;2.43;;;1.90;;
4961;SDS011;2496;52.468;13.342;2023-04-01T00:51:00;5.10;;;2.77;;
4961;SDS011;2496;52.468;13.342;2023-04-01T00:53:30;2.63;;;2.20;;
4961;SDS011;2496;52.468;13.342;2023-04-01T00:56:00;3.50;;;2.37;;
4961;SDS011;2496;52.468;13.342;2023-04-01T00:58:31;2.60;;;2.13;;
4961;SDS011;2496;52.468;13.342;2023-04-01T01:01:01;3.40;;;2.10;;
4961;SDS011;2496;52.468;13.342;2023-04-01T01:03:30;4.30;;;2.40;;
4961;SDS011;2496;52.468;13.342;2023-04-01T01:06:04;5.30;;;2.80;;
4961;SDS011;2496;52.468;13.342;2023-04-01T01:11:33;4.33;;;2.80;;
4961;SDS011;2496;52.468;13.342;2023-04-01T01:14:06;7.00;;;2.10;;
4961;SDS011;2496;52.468;13.342;2023-04-01T01:16:40;6.90;;;2.53;;
4961;SDS011;2496;52.468;13.342;2023-04-01T01:19:14;3.13;;;2.20;;
4961;SDS011;2496;52.468;13.342;2023-04-01T01:21:55;6.20;;;1.97;;
4961;SDS011;2496;52.468;13.342;2023-04-01T01:24:41;5.87;;;2.20;;
4961;SDS011;2496;52.468;13.342;2023-04-01T01:27:15;2.67;;;1.83;;
4961;SDS011;2496;52.468;13.342;2023-04-01T01:35:44;4.20;;;1.70;;
4961;SDS011;2496;52.468;13.342;2023-04-01T01:38:15;3.43;;;1.80;;
4961;SDS011;2496;52.468;13.342;2023-04-01T01:40:44;3.93;;;2.20;;
4961;SDS011;2496;52.468;13.342;2023-04-01T01:43:17;5.20;;;1.73;;
4961;SDS011;2496;52.468;13.342;2023-04-01T01:45:48;3.10;;;2.20;;
4961;SDS011;2496;52.468;13.342;2023-04-01T01:48:18;3.90;;;2.13;;
4961;SDS011;2496;52.468;13.342;2023-04-01T01:50:47;2.40;;;1.70;;
4961;SDS011;2496;52.468;13.342;2023-04-01T01:53:15;5.43;;;2.27;;
4961;SDS011;2496;52.468;13.342;2023-04-01T01:55:43;3.83;;;1.83;;
4961;SDS011;2496;52.468;13.342;2023-04-01T01:58:13;4.70;;;1.67;;
4961;SDS011;2496;52.468;13.342;2023-04-01T02:00:43;3.37;;;1.97;;
4961;SDS011;2496;52.468;13.342;2023-04-01T02:03:12;3.00;;;1.80;;
4961;SDS011;2496;52.468;13.342;2023-04-01T02:05:41;2.97;;;2.10;;
4961;SDS011;2496;52.468;13.342;2023-04-01T02:08:11;4.17;;;2.27;;
4961;SDS011;2496;52.468;13.342;2023-04-01T02:10:42;11.60;;;2.53;;
4961;SDS011;2496;52.468;13.342;2023-04-01T02:13:16;5.33;;;2.50;;
4961;SDS011;2496;52.468;13.342;2023-04-01T02:15:47;3.77;;;2.37;;
4961;SDS011;2496;52.468;13.342;2023-04-01T02:18:16;3.93;;;1.97;;
4961;SDS011;2496;52.468;13.342;2023-04-01T02:20:45;7.20;;;2.33;;
4961;SDS011;2496;52.468;13.342;2023-04-01T02:23:13;2.43;;;2.23;;
4961;SDS011;2496;52.468;13.342;2023-04-01T02:25:41;2.27;;;2.07;;
4961;SDS011;2496;52.468;13.342;2023-04-01T02:28:10;4.80;;;2.30;;
4961;SDS011;2496;52.468;13.342;2023-04-01T02:30:38;3.63;;;2.70;;
4961;SDS011;2496;52.468;13.342;2023-04-01T02:33:07;3.37;;;2.40;;
4961;SDS011;2496;52.468;13.342;2023-04-01T02:35:35;6.10;;;2.60;;
4961;SDS011;2496;52.468;13.342;2023-04-01T02:38:02;4.57;;;2.53;;
4961;SDS011;2496;52.468;13.342;2023-04-01T02:40:41;4.30;;;2.50;;
4961;SDS011;2496;52.468;13.342;2023-04-01T02:43:10;4.27;;;2.40;;
4961;SDS011;2496;52.468;13.342;2023-04-01T02:45:37;7.60;;;3.90;;
4961;SDS011;2496;52.468;13.342;2023-04-01T02:48:04;3.03;;;2.53;;
4961;SDS011;2496;52.468;13.342;2023-04-01T02:50:32;3.40;;;2.03;;
4961;SDS011;2496;52.468;13.342;2023-04-01T02:52:59;6.63;;;2.60;;
4961;SDS011;2496;52.468;13.342;2023-04-01T02:55:28;3.37;;;2.57;;
4961;SDS011;2496;52.468;13.342;2023-04-01T02:57:56;4.70;;;2.80;;
4961;SDS011;2496;52.468;13.342;2023-04-01T03:00:23;4.43;;;2.70;;
4961;SDS011;2496;52.468;13.342;2023-04-01T03:02:51;7.70;;;2.43;;
4961;SDS011;2496;52.468;13.342;2023-04-01T03:05:18;4.53;;;2.17;;
4961;SDS011;2496;52.468;13.342;2023-04-01T03:07:46;5.13;;;2.70;;
4961;SDS011;2496;52.468;13.342;2023-04-01T03:10:13;5.37;;;3.10;;
4961;SDS011;2496;52.468;13.342;2023-04-01T03:12:40;5.20;;;2.83;;
4961;SDS011;2496;52.468;13.342;2023-04-01T03:15:10;4.30;;;2.43;;
4961;SDS011;2496;52.468;13.342;2023-04-01T03:17:39;4.30;;;2.63;;
4961;SDS011;2496;52.468;13.342;2023-04-01T03:20:07;3.77;;;2.33;;
4961;SDS011;2496;52.468;13.342;2023-04-01T03:22:35;5.10;;;3.00;;
4961;SDS011;2496;52.468;13.342;2023-04-01T03:25:03;6.13;;;2.83;;
4961;SDS011;2496;52.468;13.342;2023-04-01T03:27:32;19.07;;;6.67;;
4961;SDS011;2496;52.468;13.342;2023-04-01T03:29:59;8.50;;;3.77;;
4961;SDS011;2496;52.468;13.342;2023-04-01T03:32:27;6.43;;;3.40;;
4961;SDS011;2496;52.468;13.342;2023-04-01T03:34:55;4.60;;;3.00;;
4961;SDS011;2496;52.468;13.342;2023-04-01T03:37:22;5.90;;;3.20;;
4961;SDS011;2496;52.468;13.342;2023-04-01T03:39:49;5.70;;;3.70;;
4961;SDS011;2496;52.468;13.342;2023-04-01T03:42:16;5.43;;;3.30;;
4961;SDS011;2496;52.468;13.342;2023-04-01T03:44:43;5.43;;;3.00;;
4961;SDS011;2496;52.468;13.342;2023-04-01T03:47:10;4.50;;;2.80;;
4961;SDS011;2496;52.468;13.342;2023-04-01T03:49:38;8.30;;;2.70;;
4961;SDS011;2496;52.468;13.342;2023-04-01T03:52:08;4.63;;;3.40;;
4961;SDS011;2496;52.468;13.342;2023-04-01T03:54:35;7.00;;;3.20;;
4961;SDS011;2496;52.468;13.342;2023-04-01T03:57:02;4.93;;;2.70;;
4961;SDS011;2496;52.468;13.342;2023-04-01T03:59:29;4.90;;;2.60;;
4961;SDS011;2496;52.468;13.342;2023-04-01T04:01:56;7.67;;;2.70;;
4961;SDS011;2496;52.468;13.342;2023-04-01T04:04:23;11.37;;;3.17;;
4961;SDS011;2496;52.468;13.342;2023-04-01T04:06:52;6.13;;;3.37;;
4961;SDS011;2496;52.468;13.342;2023-04-01T04:09:19;4.37;;;2.40;;
4961;SDS011;2496;52.468;13.342;2023-04-01T04:11:46;11.00;;;2.90;;
4961;SDS011;2496;52.468;13.342;2023-04-01T04:14:13;6.50;;;2.33;;
4961;SDS011;2496;52.468;13.342;2023-04-01T04:16:40;4.37;;;2.83;;
4961;SDS011;2496;52.468;13.342;2023-04-01T04:19:07;6.67;;;2.93;;
4961;SDS011;2496;52.468;13.342;2023-04-01T04:21:34;5.00;;;3.00;;
4961;SDS011;2496;52.468;13.342;2023-04-01T04:24:03;4.70;;;2.67;;
4961;SDS011;2496;52.468;13.342;2023-04-01T04:26:30;6.93;;;2.93;;
4961;SDS011;2496;52.468;13.342;2023-04-01T04:28:57;5.93;;;2.30;;
4961;SDS011;2496;52.468;13.342;2023-04-01T04:31:25;4.57;;;2.67;;
4961;SDS011;2496;52.468;13.342;2023-04-01T04:33:52;5.00;;;2.30;;
4961;SDS011;2496;52.468;13.342;2023-04-01T04:36:20;8.87;;;2.73;;
4961;SDS011;2496;52.468;13.342;2023-04-01T04:38:47;7.10;;;2.90;;
4961;SDS011;2496;52.468;13.342;2023-04-01T04:41:16;5.43;;;2.57;;
4961;SDS011;2496;52.468;13.342;2023-04-01T04:43:48;6.07;;;2.80;;
4961;SDS011;2496;52.468;13.342;2023-04-01T04:46:16;6.80;;;2.53;;
4961;SDS011;2496;52.468;13.342;2023-04-01T04:48:43;8.50;;;2.50;;
4961;SDS011;2496;52.468;13.342;2023-04-01T04:51:12;4.20;;;2.80;;
4961;SDS011;2496;52.468;13.342;2023-04-01T04:53:39;5.03;;;2.90;;
4961;SDS011;2496;52.468;13.342;2023-04-01T04:56:06;5.53;;;2.63;;
4961;SDS011;2496;52.468;13.342;2023-04-01T04:58:35;10.10;;;3.07;;
4961;SDS011;2496;52.468;13.342;2023-04-01T05:01:05;4.47;;;2.93;;
4961;SDS011;2496;52.468;13.342;2023-04-01T05:03:33;4.00;;;2.13;;
4961;SDS011;2496;52.468;13.342;2023-04-01T05:06:00;9.70;;;2.53;;
4961;SDS011;2496;52.468;13.342;2023-04-01T05:08:27;5.87;;;2.87;;
4961;SDS011;2496;52.468;13.342;2023-04-01T05:10:54;5.33;;;3.20;;
4961;SDS011;2496;52.468;13.342;2023-04-01T05:13:21;8.30;;;3.10;;
4961;SDS011;2496;52.468;13.342;2023-04-01T05:15:49;6.90;;;2.60;;
4961;SDS011;2496;52.468;13.342;2023-04-01T05:18:16;10.80;;;3.20;;
4961;SDS011;2496;52.468;13.342;2023-04-01T05:20:46;8.53;;;3.03;;
4961;SDS011;2496;52.468;13.342;2023-04-01T05:23:13;7.30;;;3.70;;
4961;SDS011;2496;52.468;13.342;2023-04-01T05:25:41;7.20;;;3.43;;
4961;SDS011;2496;52.468;13.342;2023-04-01T05:28:08;8.73;;;3.67;;
4961;SDS011;2496;52.468;13.342;2023-04-01T05:30:35;8.50;;;3.53;;
4961;SDS011;2496;52.468;13.342;2023-04-01T05:33:04;12.00;;;3.67;;
4961;SDS011;2496;52.468;13.342;2023-04-01T05:35:31;10.43;;;3.77;;
4961;SDS011;2496;52.468;13.342;2023-04-01T05:37:58;5.60;;;2.97;;
4961;SDS011;2496;52.468;13.342;2023-04-01T05:40:25;7.27;;;3.17;;
4961;SDS011;2496;52.468;13.342;2023-04-01T05:42:52;6.50;;;3.47;;
4961;SDS011;2496;52.468;13.342;2023-04-01T05:45:19;4.60;;;3.20;;
4961;SDS011;2496;52.468;13.342;2023-04-01T05:47:46;7.20;;;3.20;;
4961;SDS011;2496;52.468;13.342;2023-04-01T05:50:14;8.00;;;3.50;;
4961;SDS011;2496;52.468;13.342;2023-04-01T05:52:42;8.10;;;3.07;;
4961;SDS011;2496;52.468;13.342;2023-04-01T05:55:09;5.70;;;3.10;;
4961;SDS011;2496;52.468;13.342;2023-04-01T05:57:36;4.77;;;3.30;;
4961;SDS011;2496;52.468;13.342;2023-04-01T06:00:04;5.70;;;3.70;;
4961;SDS011;2496;52.468;13.342;2023-04-01T06:02:32;7.90;;;3.93;;
4961;SDS011;2496;52.468;13.342;2023-04-01T06:05:02;7.33;;;3.20;;
4961;SDS011;2496;52.468;13.342;2023-04-01T06:07:37;7.80;;;3.63;;
4961;SDS011;2496;52.468;13.342;2023-04-01T06:10:09;5.80;;;3.03;;
4961;SDS011;2496;52.468;13.342;2023-04-01T06:12:40;8.27;;;3.57;;
4961;SDS011;2496;52.468;13.342;2023-04-01T06:15:20;6.47;;;3.87;;
4961;SDS011;2496;52.468;13.342;2023-04-01T06:18:00;5.67;;;2.93;;
4961;SDS011;2496;52.468;13.342;2023-04-01T06:20:50;6.93;;;3.73;;
4961;SDS011;2496;52.468;13.342;2023-04-01T06:23:33;7.60;;;3.43;;
4961;SDS011;2496;52.468;13.342;2023-04-01T06:26:18;5.90;;;3.30;;
4961;SDS011;2496;52.468;13.342;2023-04-01T06:28:56;5.20;;;3.40;;
4961;SDS011;2496;52.468;13.342;2023-04-01T06:31:53;9.40;;;3.50;;
4961;SDS011;2496;52.468;13.342;2023-04-01T06:34:42;7.63;;;3.27;;
4961;SDS011;2496;52.468;13.342;2023-04-01T06:37:31;5.77;;;3.40;;
4961;SDS011;2496;52.468;13.342;2023-04-01T06:40:36;7.10;;;3.73;;
4961;SDS011;2496;52.468;13.342;2023-04-01T06:43:13;8.63;;;3.50;;
4961;SDS011;2496;52.468;13.342;2023-04-01T06:45:48;6.00;;;3.53;;
4961;SDS011;2496;52.468;13.342;2023-04-01T06:48:27;8.87;;;4.10;;
4961;SDS011;2496;52.468;13.342;2023-04-01T06:51:08;8.87;;;3.50;;
4961;SDS011;2496;52.468;13.342;2023-04-01T06:53:45;11.20;;;4.60;;
4961;SDS011;2496;52.468;13.342;2023-04-01T06:56:20;7.30;;;3.80;;
4961;SDS011;2496;52.468;13.342;2023-04-01T06:58:51;10.73;;;3.70;;
4961;SDS011;2496;52.468;13.342;2023-04-01T07:01:22;6.00;;;3.57;;
4961;SDS011;2496;52.468;13.342;2023-04-01T07:03:55;9.17;;;3.50;;
4961;SDS011;2496;52.468;13.342;2023-04-01T07:06:26;6.93;;;3.00;;
4961;SDS011;2496;52.468;13.342;2023-04-01T07:08:57;7.00;;;3.20;;
4961;SDS011;2496;52.468;13.342;2023-04-01T07:11:31;3.27;;;2.77;;
4961;SDS011;2496;52.468;13.342;2023-04-01T07:14:01;9.50;;;3.10;;
4961;SDS011;2496;52.468;13.342;2023-04-01T07:16:32;7.33;;;3.60;;
4961;SDS011;2496;52.468;13.342;2023-04-01T07:19:04;4.70;;;2.87;;
4961;SDS011;2496;52.468;13.342;2023-04-01T07:21:39;7.47;;;3.33;;
4961;SDS011;2496;52.468;13.342;2023-04-01T07:24:15;5.33;;;2.77;;
4961;SDS011;2496;52.468;13.342;2023-04-01T07:26:48;5.57;;;3.17;;
4961;SDS011;2496;52.468;13.342;2023-04-01T07:29:20;6.30;;;3.17;;
4961;SDS011;2496;52.468;13.342;2023-04-01T07:34:47;6.67;;;3.10;;
4961;SDS011;2496;52.468;13.342;2023-04-01T07:37:28;6.07;;;3.37;;
4961;SDS011;2496;52.468;13.342;2023-04-01T07:40:00;4.50;;;3.13;;
4961;SDS011;2496;52.468;13.342;2023-04-01T07:42:41;13.23;;;3.87;;
4961;SDS011;2496;52.468;13.342;2023-04-01T07:45:22;7.17;;;2.60;;
4961;SDS011;2496;52.468;13.342;2023-04-01T07:48:00;8.10;;;3.13;;
4961;SDS011;2496;52.468;13.342;2023-04-01T07:50:36;10.53;;;4.43;;
4961;SDS011;2496;52.468;13.342;2023-04-01T07:53:09;6.40;;;4.50;;
4961;SDS011;2496;52.468;13.342;2023-04-01T07:55:42;5.00;;;3.83;;
4961;SDS011;2496;52.468;13.342;2023-04-01T07:58:19;6.80;;;3.20;;
4961;SDS011;2496;52.468;13.342;2023-04-01T08:00:54;7.73;;;3.10;;
4961;SDS011;2496;52.468;13.342;2023-04-01T08:03:38;3.00;;;2.27;;
4961;SDS011;2496;52.468;13.342;2023-04-01T08:06:18;8.00;;;3.00;;
4961;SDS011;2496;52.468;13.342;2023-04-01T08:08:54;4.50;;;2.47;;
4961;SDS011;2496;52.468;13.342;2023-04-01T08:11:31;5.30;;;2.30;;
4961;SDS011;2496;52.468;13.342;2023-04-01T08:14:17;7.07;;;2.70;;
4961;SDS011;2496;52.468;13.342;2023-04-01T08:16:56;3.40;;;2.33;;
4961;SDS011;2496;52.468;13.342;2023-04-01T08:19:30;4.10;;;2.40;;
4961;SDS011;2496;52.468;13.342;2023-04-01T08:22:11;3.63;;;2.50;;
4961;SDS011;2496;52.468;13.342;2023-04-01T08:24:46;5.27;;;2.70;;
4961;SDS011;2496;52.468;13.342;2023-04-01T08:27:17;8.50;;;3.87;;
4961;SDS011;2496;52.468;13.342;2023-04-01T08:29:53;5.27;;;2.83;;
4961;SDS011;2496;52.468;13.342;2023-04-01T08:32:25;6.23;;;2.50;;
4961;SDS011;2496;52.468;13.342;2023-04-01T08:35:02;3.77;;;2.20;;
4961;SDS011;2496;52.468;13.342;2023-04-01T08:37:36;5.40;;;2.63;;
4961;SDS011;2496;52.468;13.342;2023-04-01T08:40:14;3.47;;;2.97;;
4961;SDS011;2496;52.468;13.342;2023-04-01T08:43:09;5.80;;;2.37;;
4961;SDS011;2496;52.468;13.342;2023-04-01T08:45:56;6.60;;;2.53;;
4961;SDS011;2496;52.468;13.342;2023-04-01T08:48:48;6.77;;;3.40;;
4961;SDS011;2496;52.468;13.342;2023-04-01T08:51:37;4.80;;;2.43;;
4961;SDS011;2496;52.468;13.342;2023-04-01T08:54:20;4.73;;;2.97;;
4961;SDS011;2496;52.468;13.342;2023-04-01T08:57:08;7.03;;;2.23;;
4961;SDS011;2496;52.468;13.342;2023-04-01T08:59:48;5.70;;;2.40;;
4961;SDS011;2496;52.468;13.342;2023-04-01T09:02:28;4.97;;;3.00;;
4961;SDS011;2496;52.468;13.342;2023-04-01T09:08:37;6.37;;;3.77;;
4961;SDS011;2496;52.468;13.342;2023-04-01T09:11:17;4.13;;;3.70;;
4961;SDS011;2496;52.468;13.342;2023-04-01T09:14:06;8.27;;;4.40;;
4961;SDS011;2496;52.468;13.342;2023-04-01T09:16:58;4.67;;;3.87;;
4961;SDS011;2496;52.468;13.342;2023-04-01T09:19:45;6.90;;;4.73;;
4961;SDS011;2496;52.468;13.342;2023-04-01T09:25:16;8.00;;;5.30;;
4961;SDS011;2496;52.468;13.342;2023-04-01T09:28:09;11.43;;;5.97;;
4961;SDS011;2496;52.468;13.342;2023-04-01T09:30:49;9.10;;;6.70;;
4961;SDS011;2496;52.468;13.342;2023-04-01T09:33:39;13.43;;;7.03;;
4961;SDS011;2496;52.468;13.342;2023-04-01T09:36:26;11.20;;;7.63;;
4961;SDS011;2496;52.468;13.342;2023-04-01T09:39:11;11.70;;;7.53;;
4961;SDS011;2496;52.468;13.342;2023-04-01T09:42:02;10.33;;;6.93;;
4961;SDS011;2496;52.468;13.342;2023-04-01T09:44:41;11.27;;;7.60;;
4961;SDS011;2496;52.468;13.342;2023-04-01T09:47:16;7.93;;;6.53;;
4961;SDS011;2496;52.468;13.342;2023-04-01T09:50:00;7.97;;;6.70;;
4961;SDS011;2496;52.468;13.342;2023-04-01T09:52:46;8.20;;;6.50;;
4961;SDS011;2496;52.468;13.342;2023-04-01T09:55:45;9.73;;;7.27;;
4961;SDS011;2496;52.468;13.342;2023-04-01T09:58:28;11.43;;;7.60;;
4961;SDS011;2496;52.468;13.342;2023-04-01T10:01:30;11.63;;;7.30;;
4961;SDS011;2496;52.468;13.342;2023-04-01T10:07:20;8.47;;;6.50;;
4961;SDS011;2496;52.468;13.342;2023-04-01T10:13:28;13.50;;;9.57;;
4961;SDS011;2496;52.468;13.342;2023-04-01T10:16:19;12.03;;;8.13;;
4961;SDS011;2496;52.468;13.342;2023-04-01T10:19:25;11.90;;;9.20;;
4961;SDS011;2496;52.468;13.342;2023-04-01T10:22:25;14.33;;;9.70;;
4961;SDS011;2496;52.468;13.342;2023-04-01T10:25:15;12.00;;;9.60;;
4961;SDS011;2496;52.468;13.342;2023-04-01T10:28:08;11.47;;;9.50;;
4961;SDS011;2496;52.468;13.342;2023-04-01T10:37:23;12.53;;;8.40;;
4961;SDS011;2496;52.468;13.342;2023-04-01T10:43:22;13.70;;;10.07;;
4961;SDS011;2496;52.468;13.342;2023-04-01T10:52:11;10.57;;;8.53;;
4961;SDS011;2496;52.468;13.342;2023-04-01T10:54:51;9.30;;;7.80;;
4961;SDS011;2496;52.468;13.342;2023-04-01T10:57:53;10.53;;;8.03;;
4961;SDS011;2496;52.468;13.342;2023-04-01T11:01:06;7.57;;;6.77;;
4961;SDS011;2496;52.468;13.342;2023-04-01T11:04:02;8.27;;;7.03;;
4961;SDS011;2496;52.468;13.342;2023-04-01T11:10:24;9.63;;;7.40;;
4961;SDS011;2496;52.468;13.342;2023-04-01T11:13:35;8.87;;;7.60;;
4961;SDS011;2496;52.468;13.342;2023-04-01T11:22:40;9.70;;;7.00;;
4961;SDS011;2496;52.468;13.342;2023-04-01T11:25:25;8.30;;;6.73;;
4961;SDS011;2496;52.468;13.342;2023-04-01T11:28:24;6.60;;;5.90;;
4961;SDS011;2496;52.468;13.342;2023-04-01T11:31:11;10.23;;;7.90;;
4961;SDS011;2496;52.468;13.342;2023-04-01T11:33:54;6.60;;;5.70;;
4961;SDS011;2496;52.468;13.342;2023-04-01T11:36:28;4.53;;;4.03;;
4961;SDS011;2496;52.468;13.342;2023-04-01T11:39:15;5.77;;;5.00;;
4961;SDS011;2496;52.468;13.342;2023-04-01T11:41:51;12.97;;;7.53;;
4961;SDS011;2496;52.468;13.342;2023-04-01T11:44:28;6.00;;;4.70;;
4961;SDS011;2496;52.468;13.342;2023-04-01T11:49:57;9.53;;;4.13;;
4961;SDS011;2496;52.468;13.342;2023-04-01T11:52:42;4.77;;;4.30;;
4961;SDS011;2496;52.468;13.342;2023-04-01T11:55:25;10.90;;;7.23;;
4961;SDS011;2496;52.468;13.342;2023-04-01T11:58:11;5.53;;;4.97;;
4961;SDS011;2496;52.468;13.342;2023-04-01T12:01:10;5.20;;;4.40;;
4961;SDS011;2496;52.468;13.342;2023-04-01T12:03:56;16.00;;;3.50;;
4961;SDS011;2496;52.468;13.342;2023-04-01T12:06:48;4.23;;;3.50;;
4961;SDS011;2496;52.468;13.342;2023-04-01T12:09:25;5.27;;;4.03;;
4961;SDS011;2496;52.468;13.342;2023-04-01T12:12:06;5.93;;;3.87;;
4961;SDS011;2496;52.468;13.342;2023-04-01T12:14:43;5.57;;;3.90;;
4961;SDS011;2496;52.468;13.342;2023-04-01T12:17:25;4.73;;;3.50;;
4961;SDS011;2496;52.468;13.342;2023-04-01T12:19:58;6.03;;;3.30;;
4961;SDS011;2496;52.468;13.342;2023-04-01T12:22:40;6.27;;;4.50;;
4961;SDS011;2496;52.468;13.342;2023-04-01T12:25:17;6.23;;;4.37;;
4961;SDS011;2496;52.468;13.342;2023-04-01T12:27:54;5.27;;;4.33;;
4961;SDS011;2496;52.468;13.342;2023-04-01T12:30:42;4.47;;;4.07;;
4961;SDS011;2496;52.468;13.342;2023-04-01T12:33:25;5.33;;;4.80;;
4961;SDS011;2496;52.468;13.342;2023-04-01T12:36:13;6.87;;;4.90;;
4961;SDS011;2496;52.468;13.342;2023-04-01T12:38:58;6.20;;;4.70;;
4961;SDS011;2496;52.468;13.342;2023-04-01T12:41:45;6.50;;;5.77;;
4961;SDS011;2496;52.468;13.342;2023-04-01T12:44:19;6.40;;;4.87;;
4961;SDS011;2496;52.468;13.342;2023-04-01T12:47:12;5.67;;;4.67;;
4961;SDS011;2496;52.468;13.342;2023-04-01T12:50:10;6.83;;;4.93;;
4961;SDS011;2496;52.468;13.342;2023-04-01T12:53:07;7.53;;;6.50;;
4961;SDS011;2496;52.468;13.342;2023-04-01T12:55:44;7.60;;;6.03;;
4961;SDS011;2496;52.468;13.342;2023-04-01T12:58:20;8.17;;;6.40;;
4961;SDS011;2496;52.468;13.342;2023-04-01T13:09:48;6.70;;;6.00;;
4961;SDS011;2496;52.468;13.342;2023-04-01T13:12:36;9.27;;;6.90;;
4961;SDS011;2496;52.468;13.342;2023-04-01T13:15:18;11.47;;;7.23;;
4961;SDS011;2496;52.468;13.342;2023-04-01T13:17:53;8.77;;;6.10;;
4961;SDS011;2496;52.468;13.342;2023-04-01T13:20:27;11.13;;;6.53;;
4961;SDS011;2496;52.468;13.342;2023-04-01T13:23:07;8.30;;;7.13;;
4961;SDS011;2496;52.468;13.342;2023-04-01T13:25:52;9.70;;;8.67;;
4961;SDS011;2496;52.468;13.342;2023-04-01T13:28:27;11.03;;;9.47;;
4961;SDS011;2496;52.468;13.342;2023-04-01T13:30:58;10.43;;;9.17;;
4961;SDS011;2496;52.468;13.342;2023-04-01T13:33:31;11.33;;;9.10;;
4961;SDS011;2496;52.468;13.342;2023-04-01T13:36:08;9.00;;;8.10;;
4961;SDS011;2496;52.468;13.342;2023-04-01T13:41:50;10.70;;;9.40;;
4961;SDS011;2496;52.468;13.342;2023-04-01T13:44:28;11.80;;;9.17;;
4961;SDS011;2496;52.468;13.342;2023-04-01T13:50:16;10.23;;;9.10;;
4961;SDS011;2496;52.468;13.342;2023-04-01T13:55:48;8.20;;;7.10;;
4961;SDS011;2496;52.468;13.342;2023-04-01T13:58:37;8.70;;;7.83;;
4961;SDS011;2496;52.468;13.342;2023-04-01T14:01:12;11.53;;;9.10;;
4961;SDS011;2496;52.468;13.342;2023-04-01T14:03:57;9.27;;;7.60;;
4961;SDS011;2496;52.468;13.342;2023-04-01T14:06:49;8.90;;;8.00;;
4961;SDS011;2496;52.468;13.342;2023-04-01T14:09:33;9.97;;;8.97;;
4961;SDS011;2496;52.468;13.342;2023-04-01T14:12:23;12.63;;;8.67;;
4961;SDS011;2496;52.468;13.342;2023-04-01T14:15:01;10.20;;;8.00;;
4961;SDS011;2496;52.468;13.342;2023-04-01T14:17:50;12.40;;;9.20;;
4961;SDS011;2496;52.468;13.342;2023-04-01T14:20:29;14.23;;;9.20;;
4961;SDS011;2496;52.468;13.342;2023-04-01T14:23:13;9.37;;;7.97;;
4961;SDS011;2496;52.468;13.342;2023-04-01T14:29:11;9.73;;;8.53;;
4961;SDS011;2496;52.468;13.342;2023-04-01T14:31:59;9.10;;;7.63;;
4961;SDS011;2496;52.468;13.342;2023-04-01T14:34:39;10.90;;;8.30;;
4961;SDS011;2496;52.468;13.342;2023-04-01T14:37:26;9.10;;;7.60;;
4961;SDS011;2496;52.468;13.342;2023-04-01T14:40:21;11.33;;;8.10;;
4961;SDS011;2496;52.468;13.342;2023-04-01T14:43:13;9.13;;;7.60;;
4961;SDS011;2496;52.468;13.342;2023-04-01T14:46:10;8.83;;;7.03;;
4961;SDS011;2496;52.468;13.342;2023-04-01T14:48:53;9.63;;;7.53;;
4961;SDS011;2496;52.468;13.342;2023-04-01T14:51:28;28.50;;;16.10;;
4961;SDS011;2496;52.468;13.342;2023-04-01T14:54:00;10.73;;;8.23;;
4961;SDS011;2496;52.468;13.342;2023-04-01T14:56:40;9.93;;;7.53;;
4961;SDS011;2496;52.468;13.342;2023-04-01T14:59:10;8.53;;;7.63;;
4961;SDS011;2496;52.468;13.342;2023-04-01T15:01:45;8.07;;;6.70;;
4961;SDS011;2496;52.468;13.342;2023-04-01T15:04:31;8.60;;;7.30;;
4961;SDS011;2496;52.468;13.342;2023-04-01T15:07:17;6.27;;;5.60;;
4961;SDS011;2496;52.468;13.342;2023-04-01T15:10:03;7.80;;;7.00;;
4961;SDS011;2496;52.468;13.342;2023-04-01T15:12:46;9.87;;;7.63;;
4961;SDS011;2496;52.468;13.342;2023-04-01T15:15:23;10.37;;;7.17;;
4961;SDS011;2496;52.468;13.342;2023-04-01T15:18:08;9.77;;;6.93;;
4961;SDS011;2496;52.468;13.342;2023-04-01T15:20:43;8.60;;;7.17;;
4961;SDS011;2496;52.468;13.342;2023-04-01T15:23:33;8.70;;;7.07;;
4961;SDS011;2496;52.468;13.342;2023-04-01T15:29:22;10.83;;;8.20;;
4961;SDS011;2496;52.468;13.342;2023-04-01T15:32:16;12.23;;;8.97;;
4961;SDS011;2496;52.468;13.342;2023-04-01T15:34:48;10.47;;;8.10;;
4961;SDS011;2496;52.468;13.342;2023-04-01T15:37:27;9.47;;;8.10;;
4961;SDS011;2496;52.468;13.342;2023-04-01T15:40:08;8.80;;;7.10;;
4961;SDS011;2496;52.468;13.342;2023-04-01T15:42:47;8.77;;;7.30;;
4961;SDS011;2496;52.468;13.342;2023-04-01T15:45:35;10.03;;;6.70;;
4961;SDS011;2496;52.468;13.342;2023-04-01T15:48:20;7.30;;;6.03;;
4961;SDS011;2496;52.468;13.342;2023-04-01T15:51:02;9.10;;;6.43;;
4961;SDS011;2496;52.468;13.342;2023-04-01T15:53:47;10.90;;;6.27;;
4961;SDS011;2496;52.468;13.342;2023-04-01T15:56:28;6.20;;;5.60;;
4961;SDS011;2496;52.468;13.342;2023-04-01T15:59:24;7.00;;;5.43;;
4961;SDS011;2496;52.468;13.342;2023-04-01T16:02:12;7.80;;;5.60;;
4961;SDS011;2496;52.468;13.342;2023-04-01T16:04:48;5.10;;;4.60;;
4961;SDS011;2496;52.468;13.342;2023-04-01T16:13:21;6.97;;;5.40;;
4961;SDS011;2496;52.468;13.342;2023-04-01T16:15:57;6.13;;;5.53;;
4961;SDS011;2496;52.468;13.342;2023-04-01T16:18:36;7.23;;;6.30;;
4961;SDS011;2496;52.468;13.342;2023-04-01T16:21:21;6.93;;;6.23;;
4961;SDS011;2496;52.468;13.342;2023-04-01T16:24:02;7.40;;;6.53;;
4961;SDS011;2496;52.468;13.342;2023-04-01T16:26:39;8.00;;;6.80;;
4961;SDS011;2496;52.468;13.342;2023-04-01T16:29:17;8.83;;;6.60;;
4961;SDS011;2496;52.468;13.342;2023-04-01T16:31:51;9.67;;;6.90;;
4961;SDS011;2496;52.468;13.342;2023-04-01T16:34:25;7.40;;;6.43;;
4961;SDS011;2496;52.468;13.342;2023-04-01T16:36:59;6.40;;;5.70;;
4961;SDS011;2496;52.468;13.342;2023-04-01T16:39:35;10.70;;;6.90;;
4961;SDS011;2496;52.468;13.342;2023-04-01T16:42:20;11.13;;;6.20;;
4961;SDS011;2496;52.468;13.342;2023-04-01T16:44:54;8.33;;;6.70;;
4961;SDS011;2496;52.468;13.342;2023-04-01T16:47:27;9.40;;;7.60;;
4961;SDS011;2496;52.468;13.342;2023-04-01T16:49:59;6.33;;;5.70;;
4961;SDS011;2496;52.468;13.342;2023-04-01T16:52:40;7.53;;;6.60;;
4961;SDS011;2496;52.468;13.342;2023-04-01T16:55:19;7.20;;;6.20;;
4961;SDS011;2496;52.468;13.342;2023-04-01T16:57:49;9.97;;;5.77;;
4961;SDS011;2496;52.468;13.342;2023-04-01T17:00:22;9.57;;;6.77;;
4961;SDS011;2496;52.468;13.342;2023-04-01T17:02:57;7.63;;;5.87;;
4961;SDS011;2496;52.468;13.342;2023-04-01T17:05:42;11.60;;;5.60;;
4961;SDS011;2496;52.468;13.342;2023-04-01T17:08:33;8.57;;;6.53;;
4961;SDS011;2496;52.468;13.342;2023-04-01T17:11:12;13.50;;;9.20;;
4961;SDS011;2496;52.468;13.342;2023-04-01T17:13:46;22.00;;;13.97;;
4961;SDS011;2496;52.468;13.342;2023-04-01T17:16:28;9.33;;;7.60;;
4961;SDS011;2496;52.468;13.342;2023-04-01T17:19:14;5.97;;;5.33;;